sensor_id;sensor_type;location;lat;lon;timestamp;temperature;humidity
8565;DHT22;4320;51.498;6.556;2023-07-31T00:00:12;17.50;1.00
8565;DHT22;4320;51.498;6.556;2023-07-31T00:02:37;17.40;1.00
8565;DHT22;4320;51.498;6.556;2023-07-31T00:05:03;17.50;1.00
8565;DHT22;4320;51.498;6.556;2023-07-31T00:07:29;17.50;1.00
8565;DHT22;4320;51.498;6.556;2023-07-31T00:09:55;17.50;1.00
8565;DHT22;4320;51.498;6.556;2023-07-31T00:12:22;17.40;1.00
8565;DHT22;4320;51.498;6.556;2023-07-31T00:14:47;17.40;1.00
8565;DHT22;4320;51.498;6.556;2023-07-31T00:17:13;17.30;1.00
8565;DHT22;4320;51.498;6.556;2023-07-31T00:19:39;17.30;1.00
8565;DHT22;4320;51.498;6.556;2023-07-31T00:22:05;17.40;1.00
8565;DHT22;4320;51.498;6.556;2023-07-31T00:24:30;17.40;1.00
8565;DHT22;4320;51.498;6.556;2023-07-31T00:26:56;17.30;1.00
8565;DHT22;4320;51.498;6.556;2023-07-31T00:29:21;17.40;1.00
8565;DHT22;4320;51.498;6.556;2023-07-31T00:31:47;17.40;1.00
8565;DHT22;4320;51.498;6.556;2023-07-31T00:34:12;17.40;1.00
8565;DHT22;4320;51.498;6.556;2023-07-31T00:36:38;17.40;1.00
8565;DHT22;4320;51.498;6.556;2023-07-31T00:39:04;17.50;1.00
8565;DHT22;4320;51.498;6.556;2023-07-31T00:41:30;17.40;1.00
8565;DHT22;4320;51.498;6.556;2023-07-31T00:43:55;17.30;1.00
8565;DHT22;4320;51.498;6.556;2023-07-31T00:46:21;17.30;1.00
8565;DHT22;4320;51.498;6.556;2023-07-31T00:48:47;17.40;1.00
8565;DHT22;4320;51.498;6.556;2023-07-31T00:51:13;17.30;1.00
8565;DHT22;4320;51.498;6.556;2023-07-31T00:53:39;17.40;1.00
8565;DHT22;4320;51.498;6.556;2023-07-31T00:56:05;17.40;1.00
8565;DHT22;4320;51.498;6.556;2023-07-31T00:58:31;17.40;1.00
8565;DHT22;4320;51.498;6.556;2023-07-31T01:00:57;17.50;1.00
8565;DHT22;4320;51.498;6.556;2023-07-31T01:03:23;17.50;1.00
8565;DHT22;4320;51.498;6.556;2023-07-31T01:08:44;17.50;1.00
8565;DHT22;4320;51.498;6.556;2023-07-31T01:11:43;17.40;1.00
8565;DHT22;4320;51.498;6.556;2023-07-31T01:14:09;17.40;1.00
8565;DHT22;4320;51.498;6.556;2023-07-31T01:16:35;17.40;1.00
8565;DHT22;4320;51.498;6.556;2023-07-31T01:19:00;17.40;1.00
8565;DHT22;4320;51.498;6.556;2023-07-31T01:24:21;17.50;1.00
8565;DHT22;4320;51.498;6.556;2023-07-31T01:26:56;17.60;1.00
8565;DHT22;4320;51.498;6.556;2023-07-31T01:29:28;17.50;1.00
8565;DHT22;4320;51.498;6.556;2023-07-31T01:32:01;17.50;1.00
8565;DHT22;4320;51.498;6.556;2023-07-31T01:34:28;17.60;1.00
8565;DHT22;4320;51.498;6.556;2023-07-31T01:36:55;17.50;1.00
8565;DHT22;4320;51.498;6.556;2023-07-31T01:39:20;17.50;99.90
8565;DHT22;4320;51.498;6.556;2023-07-31T01:41:46;17.50;99.90
8565;DHT22;4320;51.498;6.556;2023-07-31T01:44:12;17.60;99.90
8565;DHT22;4320;51.498;6.556;2023-07-31T01:46:37;17.50;99.90
8565;DHT22;4320;51.498;6.556;2023-07-31T01:49:03;17.50;99.90
8565;DHT22;4320;51.498;6.556;2023-07-31T01:51:31;17.60;99.90
8565;DHT22;4320;51.498;6.556;2023-07-31T01:54:00;17.50;99.90
8565;DHT22;4320;51.498;6.556;2023-07-31T01:56:25;17.50;99.90
8565;DHT22;4320;51.498;6.556;2023-07-31T01:58:51;17.50;99.90
8565;DHT22;4320;51.498;6.556;2023-07-31T02:01:16;17.30;99.90
8565;DHT22;4320;51.498;6.556;2023-07-31T02:03:42;17.30;99.90
8565;DHT22;4320;51.498;6.556;2023-07-31T02:06:08;17.40;99.90
8565;DHT22;4320;51.498;6.556;2023-07-31T02:08:33;17.40;99.90
8565;DHT22;4320;51.498;6.556;2023-07-31T02:10:59;17.30;99.90
8565;DHT22;4320;51.498;6.556;2023-07-31T02:13:24;17.40;99.90
8565;DHT22;4320;51.498;6.556;2023-07-31T02:15:50;17.50;99.90
8565;DHT22;4320;51.498;6.556;2023-07-31T02:18:16;17.60;99.90
8565;DHT22;4320;51.498;6.556;2023-07-31T02:20:42;17.50;99.90
8565;DHT22;4320;51.498;6.556;2023-07-31T02:23:07;17.50;99.90
8565;DHT22;4320;51.498;6.556;2023-07-31T02:25:33;17.50;99.90
8565;DHT22;4320;51.498;6.556;2023-07-31T02:27:58;17.40;99.90
8565;DHT22;4320;51.498;6.556;2023-07-31T02:30:24;17.40;99.90
8565;DHT22;4320;51.498;6.556;2023-07-31T02:32:50;17.40;99.90
8565;DHT22;4320;51.498;6.556;2023-07-31T02:35:15;17.40;99.90
8565;DHT22;4320;51.498;6.556;2023-07-31T02:37:42;17.40;99.90
8565;DHT22;4320;51.498;6.556;2023-07-31T02:40:08;17.40;99.90
8565;DHT22;4320;51.498;6.556;2023-07-31T02:42:33;17.40;99.90
8565;DHT22;4320;51.498;6.556;2023-07-31T02:44:59;17.40;99.90
8565;DHT22;4320;51.498;6.556;2023-07-31T02:47:25;17.40;99.90
8565;DHT22;4320;51.498;6.556;2023-07-31T02:49:50;17.40;99.90
8565;DHT22;4320;51.498;6.556;2023-07-31T02:52:16;17.50;99.90
8565;DHT22;4320;51.498;6.556;2023-07-31T02:54:41;17.50;99.90
8565;DHT22;4320;51.498;6.556;2023-07-31T02:57:07;17.60;99.90
8565;DHT22;4320;51.498;6.556;2023-07-31T02:59:33;17.50;99.90
8565;DHT22;4320;51.498;6.556;2023-07-31T03:01:58;17.50;99.90
8565;DHT22;4320;51.498;6.556;2023-07-31T03:04:24;17.50;99.90
8565;DHT22;4320;51.498;6.556;2023-07-31T03:06:49;17.50;99.90
8565;DHT22;4320;51.498;6.556;2023-07-31T03:09:15;17.40;99.90
8565;DHT22;4320;51.498;6.556;2023-07-31T03:11:41;17.50;99.90
8565;DHT22;4320;51.498;6.556;2023-07-31T03:14:06;17.60;99.90
8565;DHT22;4320;51.498;6.556;2023-07-31T03:16:32;17.60;99.90
8565;DHT22;4320;51.498;6.556;2023-07-31T03:18:57;17.60;99.90
8565;DHT22;4320;51.498;6.556;2023-07-31T03:21:23;17.60;99.90
8565;DHT22;4320;51.498;6.556;2023-07-31T03:23:49;17.50;99.90
8565;DHT22;4320;51.498;6.556;2023-07-31T03:26:14;17.50;99.90
8565;DHT22;4320;51.498;6.556;2023-07-31T03:28:40;17.60;99.90
8565;DHT22;4320;51.498;6.556;2023-07-31T03:31:05;17.70;99.90
8565;DHT22;4320;51.498;6.556;2023-07-31T03:33:31;17.80;99.90
8565;DHT22;4320;51.498;6.556;2023-07-31T03:35:57;17.80;99.90
8565;DHT22;4320;51.498;6.556;2023-07-31T03:38:22;17.80;99.90
8565;DHT22;4320;51.498;6.556;2023-07-31T03:40:48;17.80;99.90
8565;DHT22;4320;51.498;6.556;2023-07-31T03:43:15;17.70;99.90
8565;DHT22;4320;51.498;6.556;2023-07-31T03:45:41;17.90;99.90
8565;DHT22;4320;51.498;6.556;2023-07-31T03:48:06;17.90;99.90
8565;DHT22;4320;51.498;6.556;2023-07-31T03:50:33;17.90;99.90
8565;DHT22;4320;51.498;6.556;2023-07-31T03:52:58;17.80;99.90
8565;DHT22;4320;51.498;6.556;2023-07-31T03:55:24;17.80;99.90
8565;DHT22;4320;51.498;6.556;2023-07-31T03:57:50;17.80;99.90
8565;DHT22;4320;51.498;6.556;2023-07-31T04:00:15;17.70;99.90
8565;DHT22;4320;51.498;6.556;2023-07-31T04:02:41;17.70;99.90
8565;DHT22;4320;51.498;6.556;2023-07-31T04:05:07;17.90;99.90
8565;DHT22;4320;51.498;6.556;2023-07-31T04:07:33;17.90;99.90
8565;DHT22;4320;51.498;6.556;2023-07-31T04:09:59;17.90;99.90
8565;DHT22;4320;51.498;6.556;2023-07-31T04:12:25;17.90;99.90
8565;DHT22;4320;51.498;6.556;2023-07-31T04:14:50;17.90;99.90
8565;DHT22;4320;51.498;6.556;2023-07-31T04:17:17;17.90;99.90
8565;DHT22;4320;51.498;6.556;2023-07-31T04:19:43;17.90;99.90
8565;DHT22;4320;51.498;6.556;2023-07-31T04:22:09;17.90;99.90
8565;DHT22;4320;51.498;6.556;2023-07-31T04:24:34;18.00;99.90
8565;DHT22;4320;51.498;6.556;2023-07-31T04:27:00;18.00;99.90
8565;DHT22;4320;51.498;6.556;2023-07-31T04:29:25;18.00;99.90
8565;DHT22;4320;51.498;6.556;2023-07-31T04:31:51;18.10;99.90
8565;DHT22;4320;51.498;6.556;2023-07-31T04:34:17;18.10;99.90
8565;DHT22;4320;51.498;6.556;2023-07-31T04:36:42;18.10;99.90
8565;DHT22;4320;51.498;6.556;2023-07-31T04:39:08;18.10;99.90
8565;DHT22;4320;51.498;6.556;2023-07-31T04:41:33;18.20;99.90
8565;DHT22;4320;51.498;6.556;2023-07-31T04:43:59;18.10;99.90
8565;DHT22;4320;51.498;6.556;2023-07-31T04:46:25;18.20;99.90
8565;DHT22;4320;51.498;6.556;2023-07-31T04:48:50;18.20;99.90
8565;DHT22;4320;51.498;6.556;2023-07-31T04:51:16;18.20;99.90
8565;DHT22;4320;51.498;6.556;2023-07-31T04:53:41;18.10;99.90
8565;DHT22;4320;51.498;6.556;2023-07-31T04:56:07;18.10;99.90
8565;DHT22;4320;51.498;6.556;2023-07-31T04:58:32;18.10;99.90
8565;DHT22;4320;51.498;6.556;2023-07-31T05:00:58;18.20;99.90
8565;DHT22;4320;51.498;6.556;2023-07-31T05:03:24;18.20;99.90
8565;DHT22;4320;51.498;6.556;2023-07-31T05:05:50;18.20;99.90
8565;DHT22;4320;51.498;6.556;2023-07-31T05:08:16;18.30;99.90
8565;DHT22;4320;51.498;6.556;2023-07-31T05:10:43;18.20;99.90
8565;DHT22;4320;51.498;6.556;2023-07-31T05:13:08;18.20;99.90
8565;DHT22;4320;51.498;6.556;2023-07-31T05:15:34;18.30;99.90
8565;DHT22;4320;51.498;6.556;2023-07-31T05:18:00;18.30;99.90
8565;DHT22;4320;51.498;6.556;2023-07-31T05:20:25;18.30;99.90
8565;DHT22;4320;51.498;6.556;2023-07-31T05:22:51;18.30;99.90
8565;DHT22;4320;51.498;6.556;2023-07-31T05:25:17;18.30;99.90
8565;DHT22;4320;51.498;6.556;2023-07-31T05:27:42;18.20;99.90
8565;DHT22;4320;51.498;6.556;2023-07-31T05:30:08;18.20;99.90
8565;DHT22;4320;51.498;6.556;2023-07-31T05:32:34;18.30;99.90
8565;DHT22;4320;51.498;6.556;2023-07-31T05:34:59;18.30;99.90
8565;DHT22;4320;51.498;6.556;2023-07-31T05:37:25;18.40;99.90
8565;DHT22;4320;51.498;6.556;2023-07-31T05:39:51;18.40;99.90
8565;DHT22;4320;51.498;6.556;2023-07-31T05:42:17;18.40;99.90
8565;DHT22;4320;51.498;6.556;2023-07-31T05:44:43;18.40;99.90
8565;DHT22;4320;51.498;6.556;2023-07-31T05:47:09;18.40;99.90
8565;DHT22;4320;51.498;6.556;2023-07-31T05:49:34;18.40;99.90
8565;DHT22;4320;51.498;6.556;2023-07-31T05:52:00;18.40;99.90
8565;DHT22;4320;51.498;6.556;2023-07-31T05:54:26;18.40;99.90
8565;DHT22;4320;51.498;6.556;2023-07-31T05:56:51;18.50;99.90
8565;DHT22;4320;51.498;6.556;2023-07-31T05:59:17;18.50;99.90
8565;DHT22;4320;51.498;6.556;2023-07-31T06:01:42;18.60;99.90
8565;DHT22;4320;51.498;6.556;2023-07-31T06:04:08;18.60;99.90
8565;DHT22;4320;51.498;6.556;2023-07-31T06:06:34;18.50;99.90
8565;DHT22;4320;51.498;6.556;2023-07-31T06:09:00;18.50;99.90
8565;DHT22;4320;51.498;6.556;2023-07-31T06:11:25;18.40;99.90
8565;DHT22;4320;51.498;6.556;2023-07-31T06:13:51;18.30;99.90
8565;DHT22;4320;51.498;6.556;2023-07-31T06:16:17;18.30;99.90
8565;DHT22;4320;51.498;6.556;2023-07-31T06:18:42;18.40;99.90
8565;DHT22;4320;51.498;6.556;2023-07-31T06:21:10;18.30;99.90
8565;DHT22;4320;51.498;6.556;2023-07-31T06:23:36;18.30;99.90
8565;DHT22;4320;51.498;6.556;2023-07-31T06:26:02;18.30;99.90
8565;DHT22;4320;51.498;6.556;2023-07-31T06:28:31;18.30;99.90
8565;DHT22;4320;51.498;6.556;2023-07-31T06:30:58;18.20;99.90
8565;DHT22;4320;51.498;6.556;2023-07-31T06:33:24;18.20;99.90
8565;DHT22;4320;51.498;6.556;2023-07-31T06:35:50;18.20;99.90
8565;DHT22;4320;51.498;6.556;2023-07-31T06:38:19;18.10;99.90
8565;DHT22;4320;51.498;6.556;2023-07-31T06:40:45;18.00;99.90
8565;DHT22;4320;51.498;6.556;2023-07-31T06:43:10;18.10;99.90
8565;DHT22;4320;51.498;6.556;2023-07-31T06:45:36;18.10;99.90
8565;DHT22;4320;51.498;6.556;2023-07-31T06:48:03;18.10;99.90
8565;DHT22;4320;51.498;6.556;2023-07-31T06:50:30;18.10;99.90
8565;DHT22;4320;51.498;6.556;2023-07-31T06:52:55;18.20;99.90
8565;DHT22;4320;51.498;6.556;2023-07-31T06:55:21;18.20;99.90
8565;DHT22;4320;51.498;6.556;2023-07-31T06:57:49;18.20;99.90
8565;DHT22;4320;51.498;6.556;2023-07-31T07:00:15;18.10;99.90
8565;DHT22;4320;51.498;6.556;2023-07-31T07:02:41;18.00;99.90
8565;DHT22;4320;51.498;6.556;2023-07-31T07:05:07;17.90;99.90
8565;DHT22;4320;51.498;6.556;2023-07-31T07:07:33;18.00;99.90
8565;DHT22;4320;51.498;6.556;2023-07-31T07:09:59;18.00;99.90
8565;DHT22;4320;51.498;6.556;2023-07-31T07:12:25;18.10;99.90
8565;DHT22;4320;51.498;6.556;2023-07-31T07:14:51;18.10;99.90
8565;DHT22;4320;51.498;6.556;2023-07-31T07:17:18;18.10;99.90
8565;DHT22;4320;51.498;6.556;2023-07-31T07:19:44;18.10;99.90
8565;DHT22;4320;51.498;6.556;2023-07-31T07:22:11;18.10;99.90
8565;DHT22;4320;51.498;6.556;2023-07-31T07:24:37;18.10;99.90
8565;DHT22;4320;51.498;6.556;2023-07-31T07:27:03;18.10;99.90
8565;DHT22;4320;51.498;6.556;2023-07-31T07:29:29;18.00;99.90
8565;DHT22;4320;51.498;6.556;2023-07-31T07:31:54;17.90;99.90
8565;DHT22;4320;51.498;6.556;2023-07-31T07:34:22;17.90;99.90
8565;DHT22;4320;51.498;6.556;2023-07-31T07:36:48;17.80;1.00
8565;DHT22;4320;51.498;6.556;2023-07-31T07:39:14;17.90;1.00
8565;DHT22;4320;51.498;6.556;2023-07-31T07:41:40;17.90;1.00
8565;DHT22;4320;51.498;6.556;2023-07-31T07:44:05;17.90;1.00
8565;DHT22;4320;51.498;6.556;2023-07-31T07:46:31;17.80;1.00
8565;DHT22;4320;51.498;6.556;2023-07-31T07:48:56;17.80;1.00
8565;DHT22;4320;51.498;6.556;2023-07-31T07:51:22;17.70;1.00
8565;DHT22;4320;51.498;6.556;2023-07-31T07:53:47;17.50;1.00
8565;DHT22;4320;51.498;6.556;2023-07-31T07:56:13;17.50;1.00
8565;DHT22;4320;51.498;6.556;2023-07-31T07:58:38;17.50;1.00
8565;DHT22;4320;51.498;6.556;2023-07-31T08:01:04;17.60;1.00
8565;DHT22;4320;51.498;6.556;2023-07-31T08:03:31;17.60;1.00
8565;DHT22;4320;51.498;6.556;2023-07-31T08:06:00;17.60;1.00
8565;DHT22;4320;51.498;6.556;2023-07-31T08:08:26;17.70;1.00
8565;DHT22;4320;51.498;6.556;2023-07-31T08:10:51;17.70;1.00
8565;DHT22;4320;51.498;6.556;2023-07-31T08:13:17;17.70;1.00
8565;DHT22;4320;51.498;6.556;2023-07-31T08:15:43;17.70;1.00
8565;DHT22;4320;51.498;6.556;2023-07-31T08:18:09;17.70;1.00
8565;DHT22;4320;51.498;6.556;2023-07-31T08:20:35;17.70;1.00
8565;DHT22;4320;51.498;6.556;2023-07-31T08:23:00;17.80;1.00
8565;DHT22;4320;51.498;6.556;2023-07-31T08:25:26;17.90;1.00
8565;DHT22;4320;51.498;6.556;2023-07-31T08:27:52;17.80;1.00
8565;DHT22;4320;51.498;6.556;2023-07-31T08:30:18;17.90;1.00
8565;DHT22;4320;51.498;6.556;2023-07-31T08:32:44;17.90;1.00
8565;DHT22;4320;51.498;6.556;2023-07-31T08:35:09;17.80;1.00
8565;DHT22;4320;51.498;6.556;2023-07-31T08:37:35;17.80;1.00
8565;DHT22;4320;51.498;6.556;2023-07-31T08:40:01;17.70;1.00
8565;DHT22;4320;51.498;6.556;2023-07-31T08:42:27;17.70;1.00
8565;DHT22;4320;51.498;6.556;2023-07-31T08:44:52;17.80;1.00
8565;DHT22;4320;51.498;6.556;2023-07-31T08:47:19;17.80;1.00
8565;DHT22;4320;51.498;6.556;2023-07-31T08:49:46;17.90;1.00
8565;DHT22;4320;51.498;6.556;2023-07-31T08:52:12;17.90;1.00
8565;DHT22;4320;51.498;6.556;2023-07-31T08:54:38;17.90;99.90
8565;DHT22;4320;51.498;6.556;2023-07-31T08:57:04;17.90;99.90
8565;DHT22;4320;51.498;6.556;2023-07-31T08:59:31;17.90;99.90
8565;DHT22;4320;51.498;6.556;2023-07-31T09:02:00;17.90;99.90
8565;DHT22;4320;51.498;6.556;2023-07-31T09:04:28;17.90;99.90
8565;DHT22;4320;51.498;6.556;2023-07-31T09:06:58;18.00;1.00
8565;DHT22;4320;51.498;6.556;2023-07-31T09:09:25;18.00;99.90
8565;DHT22;4320;51.498;6.556;2023-07-31T09:11:50;18.10;99.90
8565;DHT22;4320;51.498;6.556;2023-07-31T09:14:17;18.00;1.00
8565;DHT22;4320;51.498;6.556;2023-07-31T09:16:58;18.20;1.00
8565;DHT22;4320;51.498;6.556;2023-07-31T09:19:32;18.20;1.00
8565;DHT22;4320;51.498;6.556;2023-07-31T09:21:59;18.20;1.00
8565;DHT22;4320;51.498;6.556;2023-07-31T09:24:29;18.20;1.00
8565;DHT22;4320;51.498;6.556;2023-07-31T09:26:56;18.30;1.00
8565;DHT22;4320;51.498;6.556;2023-07-31T09:29:22;18.30;1.00
8565;DHT22;4320;51.498;6.556;2023-07-31T09:31:48;18.40;1.00
8565;DHT22;4320;51.498;6.556;2023-07-31T09:34:14;18.40;99.90
8565;DHT22;4320;51.498;6.556;2023-07-31T09:36:48;18.30;99.90
8565;DHT22;4320;51.498;6.556;2023-07-31T09:39:15;18.30;99.90
8565;DHT22;4320;51.498;6.556;2023-07-31T09:41:53;18.30;99.90
8565;DHT22;4320;51.498;6.556;2023-07-31T09:44:19;18.20;99.90
8565;DHT22;4320;51.498;6.556;2023-07-31T09:46:46;18.20;99.90
8565;DHT22;4320;51.498;6.556;2023-07-31T09:49:13;18.40;1.00
8565;DHT22;4320;51.498;6.556;2023-07-31T09:51:40;18.40;99.90
8565;DHT22;4320;51.498;6.556;2023-07-31T09:54:13;18.40;99.90
8565;DHT22;4320;51.498;6.556;2023-07-31T09:56:42;18.30;1.00
8565;DHT22;4320;51.498;6.556;2023-07-31T09:59:11;18.40;1.00
8565;DHT22;4320;51.498;6.556;2023-07-31T10:01:38;18.30;1.00
8565;DHT22;4320;51.498;6.556;2023-07-31T10:04:04;18.40;1.00
8565;DHT22;4320;51.498;6.556;2023-07-31T10:06:30;18.40;99.90
8565;DHT22;4320;51.498;6.556;2023-07-31T10:08:57;18.40;99.90
8565;DHT22;4320;51.498;6.556;2023-07-31T10:11:24;18.40;99.90
8565;DHT22;4320;51.498;6.556;2023-07-31T10:13:53;18.40;99.90
8565;DHT22;4320;51.498;6.556;2023-07-31T10:16:19;18.50;99.90
8565;DHT22;4320;51.498;6.556;2023-07-31T10:18:46;18.50;99.90
8565;DHT22;4320;51.498;6.556;2023-07-31T10:21:12;18.50;99.90
8565;DHT22;4320;51.498;6.556;2023-07-31T10:23:38;18.60;99.90
8565;DHT22;4320;51.498;6.556;2023-07-31T10:26:05;18.70;99.90
8565;DHT22;4320;51.498;6.556;2023-07-31T10:28:33;18.80;99.90
8565;DHT22;4320;51.498;6.556;2023-07-31T10:31:01;18.90;99.90
8565;DHT22;4320;51.498;6.556;2023-07-31T10:33:27;18.90;99.90
8565;DHT22;4320;51.498;6.556;2023-07-31T10:36:21;19.00;99.90
8565;DHT22;4320;51.498;6.556;2023-07-31T10:38:50;18.90;99.90
8565;DHT22;4320;51.498;6.556;2023-07-31T10:41:18;19.00;99.90
8565;DHT22;4320;51.498;6.556;2023-07-31T10:43:46;19.00;99.90
8565;DHT22;4320;51.498;6.556;2023-07-31T10:46:13;19.00;99.90
8565;DHT22;4320;51.498;6.556;2023-07-31T10:48:40;19.00;99.90
8565;DHT22;4320;51.498;6.556;2023-07-31T10:51:10;19.10;99.90
8565;DHT22;4320;51.498;6.556;2023-07-31T10:53:38;19.10;99.90
8565;DHT22;4320;51.498;6.556;2023-07-31T10:56:10;19.00;99.90
8565;DHT22;4320;51.498;6.556;2023-07-31T10:58:44;19.00;99.90
8565;DHT22;4320;51.498;6.556;2023-07-31T11:01:09;19.00;99.90
8565;DHT22;4320;51.498;6.556;2023-07-31T11:03:47;19.10;99.90
8565;DHT22;4320;51.498;6.556;2023-07-31T11:06:15;19.10;99.90
8565;DHT22;4320;51.498;6.556;2023-07-31T11:08:43;19.10;99.90
8565;DHT22;4320;51.498;6.556;2023-07-31T11:11:10;19.00;99.90
8565;DHT22;4320;51.498;6.556;2023-07-31T11:13:50;19.00;99.90
8565;DHT22;4320;51.498;6.556;2023-07-31T11:16:21;19.10;99.90
8565;DHT22;4320;51.498;6.556;2023-07-31T11:18:47;18.90;99.90
8565;DHT22;4320;51.498;6.556;2023-07-31T11:21:21;18.90;99.90
8565;DHT22;4320;51.498;6.556;2023-07-31T11:23:48;18.90;99.90
8565;DHT22;4320;51.498;6.556;2023-07-31T11:26:15;19.00;99.90
8565;DHT22;4320;51.498;6.556;2023-07-31T11:28:40;19.10;99.90
8565;DHT22;4320;51.498;6.556;2023-07-31T11:31:09;19.00;99.90
8565;DHT22;4320;51.498;6.556;2023-07-31T11:33:36;18.90;99.90
8565;DHT22;4320;51.498;6.556;2023-07-31T11:36:02;19.00;99.90
8565;DHT22;4320;51.498;6.556;2023-07-31T11:38:29;19.00;99.90
8565;DHT22;4320;51.498;6.556;2023-07-31T11:40:57;18.90;99.90
8565;DHT22;4320;51.498;6.556;2023-07-31T11:43:24;19.00;99.90
8565;DHT22;4320;51.498;6.556;2023-07-31T11:45:51;19.00;99.90
8565;DHT22;4320;51.498;6.556;2023-07-31T11:48:31;19.10;99.90
8565;DHT22;4320;51.498;6.556;2023-07-31T11:51:00;19.10;99.90
8565;DHT22;4320;51.498;6.556;2023-07-31T11:53:42;19.10;99.90
8565;DHT22;4320;51.498;6.556;2023-07-31T11:56:12;19.10;99.90
8565;DHT22;4320;51.498;6.556;2023-07-31T11:58:38;19.10;99.90
8565;DHT22;4320;51.498;6.556;2023-07-31T12:01:05;19.00;99.90
8565;DHT22;4320;51.498;6.556;2023-07-31T12:03:31;19.10;99.90
8565;DHT22;4320;51.498;6.556;2023-07-31T12:05:59;19.10;99.90
8565;DHT22;4320;51.498;6.556;2023-07-31T12:08:25;19.10;99.90
8565;DHT22;4320;51.498;6.556;2023-07-31T12:10:51;19.10;99.90
8565;DHT22;4320;51.498;6.556;2023-07-31T12:13:25;19.10;99.90
8565;DHT22;4320;51.498;6.556;2023-07-31T12:15:57;19.00;99.90
8565;DHT22;4320;51.498;6.556;2023-07-31T12:18:24;19.10;99.90
8565;DHT22;4320;51.498;6.556;2023-07-31T12:21:01;19.20;99.90
8565;DHT22;4320;51.498;6.556;2023-07-31T12:23:32;19.30;99.90
8565;DHT22;4320;51.498;6.556;2023-07-31T12:26:10;19.20;99.90
8565;DHT22;4320;51.498;6.556;2023-07-31T12:31:04;19.30;99.90
8565;DHT22;4320;51.498;6.556;2023-07-31T12:33:40;19.30;99.90
8565;DHT22;4320;51.498;6.556;2023-07-31T12:36:24;19.50;99.90
8565;DHT22;4320;51.498;6.556;2023-07-31T12:38:51;19.60;99.90
8565;DHT22;4320;51.498;6.556;2023-07-31T12:41:17;19.50;99.90
8565;DHT22;4320;51.498;6.556;2023-07-31T12:43:44;19.50;99.90
8565;DHT22;4320;51.498;6.556;2023-07-31T12:46:10;19.50;99.90
8565;DHT22;4320;51.498;6.556;2023-07-31T12:48:37;19.50;99.90
8565;DHT22;4320;51.498;6.556;2023-07-31T12:51:04;19.50;99.90
8565;DHT22;4320;51.498;6.556;2023-07-31T12:53:30;19.60;99.90
8565;DHT22;4320;51.498;6.556;2023-07-31T12:55:56;19.50;99.90
8565;DHT22;4320;51.498;6.556;2023-07-31T12:58:22;19.60;99.90
8565;DHT22;4320;51.498;6.556;2023-07-31T13:00:48;19.40;99.90
8565;DHT22;4320;51.498;6.556;2023-07-31T13:03:13;19.50;99.90
8565;DHT22;4320;51.498;6.556;2023-07-31T13:05:39;19.60;99.90
8565;DHT22;4320;51.498;6.556;2023-07-31T13:08:05;19.60;99.90
8565;DHT22;4320;51.498;6.556;2023-07-31T13:10:30;19.60;99.90
8565;DHT22;4320;51.498;6.556;2023-07-31T13:12:56;19.60;99.90
8565;DHT22;4320;51.498;6.556;2023-07-31T13:15:22;19.50;99.90
8565;DHT22;4320;51.498;6.556;2023-07-31T13:17:47;19.60;99.90
8565;DHT22;4320;51.498;6.556;2023-07-31T13:20:13;19.60;99.90
8565;DHT22;4320;51.498;6.556;2023-07-31T13:22:39;19.60;99.90
8565;DHT22;4320;51.498;6.556;2023-07-31T13:25:05;19.70;99.90
8565;DHT22;4320;51.498;6.556;2023-07-31T13:27:31;19.70;99.90
8565;DHT22;4320;51.498;6.556;2023-07-31T13:29:57;19.70;99.90
8565;DHT22;4320;51.498;6.556;2023-07-31T13:32:23;19.70;99.90
8565;DHT22;4320;51.498;6.556;2023-07-31T13:34:49;19.70;99.90
8565;DHT22;4320;51.498;6.556;2023-07-31T13:37:15;19.60;99.90
8565;DHT22;4320;51.498;6.556;2023-07-31T13:39:41;19.70;99.90
8565;DHT22;4320;51.498;6.556;2023-07-31T13:42:08;19.80;99.90
8565;DHT22;4320;51.498;6.556;2023-07-31T13:44:38;19.90;99.90
8565;DHT22;4320;51.498;6.556;2023-07-31T13:47:03;19.80;99.90
8565;DHT22;4320;51.498;6.556;2023-07-31T13:49:29;19.80;99.90
8565;DHT22;4320;51.498;6.556;2023-07-31T13:51:56;19.80;99.90
8565;DHT22;4320;51.498;6.556;2023-07-31T13:54:25;19.80;99.90
8565;DHT22;4320;51.498;6.556;2023-07-31T13:56:54;20.00;99.90
8565;DHT22;4320;51.498;6.556;2023-07-31T13:59:20;20.20;99.90
8565;DHT22;4320;51.498;6.556;2023-07-31T14:01:46;20.30;99.90
8565;DHT22;4320;51.498;6.556;2023-07-31T14:04:12;20.40;99.90
8565;DHT22;4320;51.498;6.556;2023-07-31T14:06:37;20.40;99.90
8565;DHT22;4320;51.498;6.556;2023-07-31T14:09:03;20.40;99.90
8565;DHT22;4320;51.498;6.556;2023-07-31T14:11:30;20.50;99.90
8565;DHT22;4320;51.498;6.556;2023-07-31T14:13:56;20.40;99.90
8565;DHT22;4320;51.498;6.556;2023-07-31T14:16:22;20.40;99.90
8565;DHT22;4320;51.498;6.556;2023-07-31T14:18:47;20.30;99.90
8565;DHT22;4320;51.498;6.556;2023-07-31T14:21:13;20.30;99.90
8565;DHT22;4320;51.498;6.556;2023-07-31T14:23:39;20.30;99.90
8565;DHT22;4320;51.498;6.556;2023-07-31T14:26:05;20.20;99.90
8565;DHT22;4320;51.498;6.556;2023-07-31T14:28:31;20.20;99.90
8565;DHT22;4320;51.498;6.556;2023-07-31T14:30:56;20.10;99.90
8565;DHT22;4320;51.498;6.556;2023-07-31T14:33:22;20.10;99.90
8565;DHT22;4320;51.498;6.556;2023-07-31T14:35:47;20.00;99.90
8565;DHT22;4320;51.498;6.556;2023-07-31T14:38:13;20.00;99.90
8565;DHT22;4320;51.498;6.556;2023-07-31T14:40:39;19.90;99.90
8565;DHT22;4320;51.498;6.556;2023-07-31T14:43:04;19.80;99.90
8565;DHT22;4320;51.498;6.556;2023-07-31T14:45:30;19.70;99.90
8565;DHT22;4320;51.498;6.556;2023-07-31T14:47:56;19.60;99.90
8565;DHT22;4320;51.498;6.556;2023-07-31T14:50:21;19.50;99.90
8565;DHT22;4320;51.498;6.556;2023-07-31T14:52:48;19.50;99.90
8565;DHT22;4320;51.498;6.556;2023-07-31T14:55:14;19.50;99.90
8565;DHT22;4320;51.498;6.556;2023-07-31T14:57:39;19.60;99.90
8565;DHT22;4320;51.498;6.556;2023-07-31T15:00:06;19.60;99.90
8565;DHT22;4320;51.498;6.556;2023-07-31T15:02:34;19.60;99.90
8565;DHT22;4320;51.498;6.556;2023-07-31T15:05:00;19.60;99.90
8565;DHT22;4320;51.498;6.556;2023-07-31T15:07:26;19.60;99.90
8565;DHT22;4320;51.498;6.556;2023-07-31T15:09:52;19.60;99.90
8565;DHT22;4320;51.498;6.556;2023-07-31T15:12:17;19.60;99.90
8565;DHT22;4320;51.498;6.556;2023-07-31T15:14:43;19.60;99.90
8565;DHT22;4320;51.498;6.556;2023-07-31T15:17:08;19.70;99.90
8565;DHT22;4320;51.498;6.556;2023-07-31T15:19:34;19.70;99.90
8565;DHT22;4320;51.498;6.556;2023-07-31T15:22:02;19.60;99.90
8565;DHT22;4320;51.498;6.556;2023-07-31T15:24:28;19.60;99.90
8565;DHT22;4320;51.498;6.556;2023-07-31T15:26:54;19.60;99.90
8565;DHT22;4320;51.498;6.556;2023-07-31T15:29:20;19.70;99.90
8565;DHT22;4320;51.498;6.556;2023-07-31T15:31:46;19.70;99.90
8565;DHT22;4320;51.498;6.556;2023-07-31T15:34:13;19.70;99.90
8565;DHT22;4320;51.498;6.556;2023-07-31T15:36:39;19.60;99.90
8565;DHT22;4320;51.498;6.556;2023-07-31T15:39:05;19.60;99.90
8565;DHT22;4320;51.498;6.556;2023-07-31T15:41:34;19.60;99.90
8565;DHT22;4320;51.498;6.556;2023-07-31T15:44:00;19.70;99.90
8565;DHT22;4320;51.498;6.556;2023-07-31T15:46:25;19.70;99.90
8565;DHT22;4320;51.498;6.556;2023-07-31T15:48:51;19.60;99.90
8565;DHT22;4320;51.498;6.556;2023-07-31T15:51:19;19.50;99.90
8565;DHT22;4320;51.498;6.556;2023-07-31T15:53:44;19.50;99.90
8565;DHT22;4320;51.498;6.556;2023-07-31T15:56:10;19.40;99.90
8565;DHT22;4320;51.498;6.556;2023-07-31T15:58:36;19.30;99.90
8565;DHT22;4320;51.498;6.556;2023-07-31T16:01:02;19.30;99.90
8565;DHT22;4320;51.498;6.556;2023-07-31T16:03:27;19.10;99.90
8565;DHT22;4320;51.498;6.556;2023-07-31T16:05:53;19.00;99.90
8565;DHT22;4320;51.498;6.556;2023-07-31T16:08:18;19.00;99.90